Time;durP1;ratioP1;P1;durP2;ratioP2;P2;SDS_P1;SDS_P2;PMS_P1;PMS_P2;Temp;Humidity;BMP_temperature;BMP_pressure;BME280_temperature;BME280_humidity;BME280_pressure;Samples;Min_cycle;Max_cycle;Signal;HPM_P1;HPM_P2
2023/10/02 00:06:33;;;;;;;12.30;7.60;;;;;;;12.66;74.91;99329.19;435592;1250;97893;-42
2023/10/02 00:16:37;;;;;;;25.10;10.80;;;;;;;12.53;75.13;99320.92;435598;1250;110284;-43
2023/10/02 00:26:42;;;;;;;20.00;10.10;;;;;;;12.44;75.33;99319.00;435557;1254;98395;-42
2023/10/02 00:36:46;;;;;;;21.50;10.60;;;;;;;12.41;75.55;99317.26;435081;1254;460260;-42
2023/10/02 00:46:52;;;;;;;15.50;9.60;;;;;;;12.37;75.75;99319.92;435406;1254;110549;-42
2023/10/02 00:56:56;;;;;;;16.80;9.50;;;;;;;12.29;76.13;99324.16;435714;1249;108706;-41
2023/10/02 01:17:09;;;;;;;17.90;8.30;;;;;;;12.30;76.58;99325.86;435381;1261;110530;-41
2023/10/02 01:27:18;;;;;;;16.40;9.10;;;;;;;12.44;76.71;99325.52;435455;1264;107909;-41
2023/10/02 01:57:41;;;;;;;21.50;10.00;;;;;;;12.09;76.75;99311.83;435428;1249;97912;-42
2023/10/02 02:18:20;;;;;;;16.10;7.40;;;;;;;12.09;77.59;99323.93;436342;1263;107683;-42
2023/10/02 02:28:23;;;;;;;11.60;7.30;;;;;;;12.33;77.79;99329.19;436307;1247;97885;-41
2023/10/02 02:38:27;;;;;;;14.10;7.70;;;;;;;12.45;77.83;99335.09;436614;1251;108390;-42
2023/10/02 02:58:35;;;;;;;12.10;7.30;;;;;;;12.28;77.79;99336.17;436672;1251;109754;-42
2023/10/02 03:08:38;;;;;;;22.20;8.10;;;;;;;12.30;77.92;99335.02;436240;1251;107683;-41
2023/10/02 03:28:47;;;;;;;18.40;9.10;;;;;;;12.24;78.21;99337.45;436399;1247;107910;-41
2023/10/02 03:38:53;;;;;;;15.60;8.50;;;;;;;12.05;78.33;99336.90;436542;1247;97871;-42
2023/10/02 03:59:06;;;;;;;18.50;7.70;;;;;;;11.95;78.59;99337.71;436507;1251;108471;-42
2023/10/02 05:20:38;;;;;;;25.60;10.30;;;;;;;11.99;80.78;99344.36;436461;1253;107214;-41
2023/10/02 06:00:57;;;;;;;20.60;9.30;;;;;;;13.11;80.90;99378.59;436461;1247;109814;-42
2023/10/02 06:31:31;;;;;;;16.10;8.90;;;;;;;14.78;81.08;99384.82;436425;1251;111225;-43
2023/10/02 06:51:38;;;;;;;15.70;7.20;;;;;;;16.76;79.13;99384.16;436424;1251;97897;-42
2023/10/02 07:11:51;;;;;;;12.20;6.30;;;;;;;17.55;77.72;99387.37;436329;1247;107810;-42
2023/10/02 07:21:54;;;;;;;;;;;;;;;18.00;76.91;99382.55;436486;1253;97901;-41
2023/10/02 07:31:58;;;;;;;11.20;5.20;;;;;;;17.94;76.07;99386.63;436362;1253;97858;-42
2023/10/02 07:42:04;;;;;;;14.00;5.60;;;;;;;18.19;75.84;99385.95;436378;1247;108310;-42
2023/10/02 07:52:11;;;;;;;10.40;5.00;;;;;;;19.11;75.47;99379.23;436348;1248;118382;-42
2023/10/02 08:02:22;;;;;;;10.60;4.80;;;;;;;19.04;74.19;99390.03;436370;1248;108009;-42
2023/10/02 08:12:34;;;;;;;14.60;5.70;;;;;;;18.80;73.74;99392.84;436570;1248;98070;-42
2023/10/02 08:22:44;;;;;;;6.50;3.80;;;;;;;19.49;73.13;99382.88;436553;1253;111695;-41
2023/10/02 08:32:49;;;;;;;10.60;4.20;;;;;;;20.10;72.03;99382.36;436372;1254;107844;-41
2023/10/02 08:42:56;;;;;;;13.90;3.60;;;;;;;20.53;70.70;99386.23;436600;1253;97249;-41
2023/10/02 08:53:04;;;;;;;9.00;3.90;;;;;;;21.17;69.97;99388.92;436593;1247;109565;-41
2023/10/02 09:13:16;;;;;;;7.40;3.90;;;;;;;21.83;68.57;99382.80;436575;1248;97776;-40
2023/10/02 09:23:22;;;;;;;7.40;3.80;;;;;;;21.93;67.86;99375.80;436534;1253;109850;-41
2023/10/02 09:33:26;;;;;;;8.10;3.30;;;;;;;22.08;67.02;99368.84;436616;1247;108084;-41
2023/10/02 09:43:52;;;;;;;8.50;4.60;;;;;;;22.19;66.23;99367.41;436404;1248;97877;-40
2023/10/02 10:14:36;;;;;;;5.30;3.10;;;;;;;22.48;64.51;99358.64;436463;1253;97459;-41
2023/10/02 10:24:56;;;;;;;5.00;2.60;;;;;;;22.60;64.09;99363.44;436584;1253;108956;-41
2023/10/02 10:45:26;;;;;;;8.00;3.90;;;;;;;22.25;63.71;99362.92;436285;1253;97871;-41
2023/10/02 11:05:36;;;;;;;7.00;3.40;;;;;;;21.88;64.06;99350.39;436265;1252;107543;-42
2023/10/02 11:15:47;;;;;;;12.70;4.20;;;;;;;21.82;63.71;99344.39;436336;1261;98708;-40
2023/10/02 11:25:53;;;;;;;6.20;3.90;;;;;;;21.89;63.80;99336.44;436389;1254;110501;-40
2023/10/02 11:46:00;;;;;;;7.90;3.90;;;;;;;22.23;63.64;99332.40;436292;1253;97865;-42
2023/10/02 11:56:03;;;;;;;9.30;3.70;;;;;;;22.26;63.59;99320.63;436295;1248;108123;-41
2023/10/02 12:16:14;;;;;;;4.70;3.30;;;;;;;22.22;62.85;99312.85;436394;1253;110161;-42
2023/10/02 12:26:20;;;;;;;4.30;3.50;;;;;;;22.18;62.79;99301.15;436449;1254;108454;-42
2023/10/02 12:36:26;;;;;;;6.40;4.30;;;;;;;22.11;62.98;99297.11;429083;1253;10293312;-41
2023/10/02 12:46:31;;;;;;;6.90;4.00;;;;;;;22.07;62.94;99300.17;436337;1253;108566;-42
2023/10/02 12:56:39;;;;;;;9.30;4.70;;;;;;;21.99;62.86;99292.81;436506;1253;97844;-42
2023/10/02 13:16:45;;;;;;;8.90;4.80;;;;;;;21.84;62.86;99280.25;436445;1247;108402;-42
2023/10/02 13:57:07;;;;;;;12.30;4.90;;;;;;;21.47;63.29;99252.77;436477;1248;110902;-42
2023/10/02 14:17:15;;;;;;;23.20;5.90;;;;;;;21.19;63.66;99249.16;436340;1247;96623;-43
2023/10/02 14:27:22;;;;;;;15.40;5.00;;;;;;;21.09;64.11;99239.84;436554;1248;108606;-41
2023/10/02 14:37:27;;;;;;;7.90;4.80;;;;;;;20.93;64.10;99235.30;436450;1248;97903;-42
2023/10/02 14:57:37;;;;;;;7.80;4.30;;;;;;;20.59;64.50;99231.50;436363;1254;97031;-42
2023/10/02 15:07:41;;;;;;;13.40;4.60;;;;;;;20.46;64.80;99231.92;436230;1261;98014;-43
2023/10/02 15:27:52;;;;;;;13.50;5.50;;;;;;;20.30;65.60;99228.39;436946;1247;108454;-42
2023/10/02 15:38:01;;;;;;;16.50;6.20;;;;;;;20.06;65.91;99230.91;437697;1248;96596;-41
2023/10/02 15:48:28;;;;;;;10.40;7.00;;;;;;;19.85;66.30;99231.11;436476;1254;110057;-42
2023/10/02 15:58:32;;;;;;;21.60;8.50;;;;;;;19.68;66.96;99230.70;436616;1251;108078;-42
2023/10/02 16:08:35;;;;;;;18.70;10.70;;;;;;;19.43;67.63;99227.16;436261;1248;98375;-42
2023/10/02 16:18:38;;;;;;;18.20;10.30;;;;;;;19.09;68.17;99227.98;436199;1248;108641;-42
2023/10/02 16:38:50;;;;;;;13.00;6.70;;;;;;;18.30;68.98;99229.02;436331;1248;109588;-43
2023/10/02 16:49:10;;;;;;;20.30;10.70;;;;;;;17.94;69.55;99227.01;436370;1247;108351;-41
2023/10/02 16:59:14;;;;;;;21.30;11.70;;;;;;;17.59;70.00;99217.80;436324;1248;97890;-41
2023/10/02 17:09:18;;;;;;;31.50;13.50;;;;;;;17.35;70.91;99215.55;436384;1253;107460;-41
2023/10/02 17:29:28;;;;;;;25.50;13.60;;;;;;;16.98;71.97;99207.36;436343;1247;110321;-41
2023/10/02 17:39:33;;;;;;;33.60;14.80;;;;;;;16.85;72.49;99208.45;436356;1253;109103;-42
2023/10/02 17:49:36;;;;;;;32.00;16.20;;;;;;;16.69;72.72;99210.02;436300;1251;97894;-41
2023/10/02 17:59:41;;;;;;;30.30;15.80;;;;;;;16.60;73.64;99196.86;436321;1253;107990;-41
2023/10/02 18:09:43;;;;;;;25.00;15.70;;;;;;;16.54;74.35;99192.22;436327;1248;97845;-42
2023/10/02 18:19:47;;;;;;;30.80;17.40;;;;;;;16.37;75.05;99185.71;436272;1248;109583;-43
2023/10/02 18:29:51;;;;;;;32.20;19.20;;;;;;;16.20;75.19;99190.04;436312;1261;107695;-41
2023/10/02 18:39:54;;;;;;;40.50;21.90;;;;;;;16.06;75.80;99191.44;436530;1247;97480;-41
2023/10/02 19:00:11;;;;;;;38.90;21.10;;;;;;;15.83;76.73;99193.23;436381;1254;98340;-42
2023/10/02 19:30:21;;;;;;;23.00;16.80;;;;;;;15.48;78.29;99178.23;436282;1250;96661;-41
2023/10/02 19:40:26;;;;;;;23.40;13.50;;;;;;;15.40;78.30;99178.55;436352;1251;97865;-42
2023/10/02 19:50:29;;;;;;;26.70;15.50;;;;;;;15.33;78.25;99176.80;436135;1253;106395;-41
2023/10/02 20:00:34;;;;;;;21.90;14.60;;;;;;;15.23;78.19;99173.97;436330;1253;97881;-41
2023/10/02 20:10:38;;;;;;;25.20;13.90;;;;;;;15.07;78.50;99164.73;436397;1253;108559;-41
2023/10/02 20:20:46;;;;;;;28.10;15.60;;;;;;;14.92;79.02;99160.65;436169;1261;97877;-42
2023/10/02 20:30:50;;;;;;;29.90;14.50;;;;;;;14.81;79.42;99157.24;436359;1247;109830;-42
2023/10/02 20:40:55;;;;;;;25.00;13.90;;;;;;;14.72;79.70;99148.06;436192;1253;108484;-41
2023/10/02 21:11:10;;;;;;;19.20;11.50;;;;;;;14.49;80.23;99136.05;436329;1251;97992;-42
2023/10/02 21:21:13;;;;;;;17.90;12.00;;;;;;;14.40;80.61;99126.19;436421;1247;110761;-42
2023/10/02 21:31:41;;;;;;;21.00;13.10;;;;;;;14.32;80.84;99122.33;436340;1247;107629;-41
2023/10/02 21:41:49;;;;;;;16.50;11.30;;;;;;;14.20;81.34;99115.02;436348;1247;97874;-41
2023/10/02 21:51:52;;;;;;;21.20;11.00;;;;;;;14.12;81.55;99111.05;436412;1247;109434;-43
2023/10/02 22:01:56;;;;;;;20.10;10.90;;;;;;;14.04;81.61;99098.32;436501;1252;97851;-42
2023/10/02 22:22:05;;;;;;;22.00;10.70;;;;;;;13.93;82.33;99086.63;436278;1252;107983;-41
2023/10/02 22:32:09;;;;;;;16.30;9.90;;;;;;;13.93;82.46;99087.52;436328;1254;97906;-43
2023/10/02 22:42:12;;;;;;;19.40;11.00;;;;;;;13.85;82.89;99077.52;436287;1252;108215;-43
2023/10/02 22:52:16;;;;;;;19.60;10.80;;;;;;;13.79;82.99;99073.60;436388;1253;97893;-41
2023/10/02 23:02:20;;;;;;;14.50;9.40;;;;;;;13.75;83.51;99063.50;436418;1250;110573;-41
2023/10/02 23:12:50;;;;;;;17.40;9.60;;;;;;;13.73;83.84;99059.84;436288;1252;108439;-41
2023/10/02 23:22:55;;;;;;;17.20;10.20;;;;;;;13.74;83.89;99060.02;436304;1248;97878;-43
2023/10/02 23:32:59;;;;;;;19.80;10.60;;;;;;;13.71;84.02;99049.67;436451;1253;108046;-42
2023/10/02 23:43:03;;;;;;;21.40;11.00;;;;;;;13.65;84.03;99039.31;436255;1253;97831;-41
